createdAt,value
2023-03-05T00:01:10.321Z,97134.44
2023-03-05T00:03:43.834Z,97133.23
2023-03-05T00:06:18.118Z,97129.84
2023-03-05T00:08:52.156Z,97124.24
2023-03-05T00:11:26.026Z,97131.36
2023-03-05T00:13:59.427Z,97129.15
2023-03-05T00:16:32.815Z,97123.21
2023-03-05T01:59:00.851Z,97082.93
2023-03-05T02:01:40.222Z,97082.60
2023-03-05T02:04:16.231Z,97080.06
2023-03-05T02:06:50.100Z,97081.42
2023-03-05T02:09:23.631Z,97079.72
2023-03-05T02:11:56.431Z,97082.09
2023-03-05T02:14:29.341Z,97078.18
2023-03-05T02:17:01.518Z,97073.09
2023-03-05T02:19:47.096Z,97067.29
2023-03-05T02:22:20.656Z,97070.51
2023-03-05T02:24:53.058Z,97066.80
2023-03-05T02:27:35.248Z,97068.15
2023-03-05T02:30:08.424Z,97062.71
2023-03-05T02:32:40.732Z,97059.80
2023-03-05T02:35:13.794Z,97056.56
2023-03-05T02:37:46.340Z,97054.86
2023-03-05T02:40:19.134Z,97053.52
2023-03-05T02:42:51.311Z,97054.56
2023-03-05T02:45:23.619Z,97049.30
2023-03-05T02:47:56.266Z,97049.30
2023-03-05T02:50:30.266Z,97050.45
2023-03-05T02:53:02.725Z,97048.77
2023-03-05T02:55:35.200Z,97046.91
2023-03-05T02:58:07.737Z,97045.19
2023-03-05T03:00:39.885Z,97048.24
2023-03-05T03:03:12.299Z,97042.63
2023-03-05T03:05:45.220Z,97036.85
2023-03-05T03:08:17.437Z,97037.02
2023-03-05T03:10:49.576Z,97040.23
2023-03-05T03:13:21.881Z,97037.00
2023-03-05T03:16:02.863Z,97036.32
2023-03-05T03:18:36.108Z,97035.08
2023-03-05T03:21:09.086Z,97035.27
2023-03-05T03:23:41.082Z,97034.91
2023-03-05T03:26:13.252Z,97035.10
2023-03-05T03:28:45.857Z,97031.69
2023-03-05T03:31:18.704Z,97035.44
2023-03-05T03:33:51.123Z,97036.11
2023-03-05T03:36:23.309Z,97036.07
2023-03-05T03:38:56.840Z,97031.16
2023-03-05T03:41:28.835Z,97031.83
2023-03-05T03:44:02.982Z,97024.88
2023-03-05T03:46:35.145Z,97020.13
2023-03-05T03:49:07.674Z,97019.95
2023-03-05T03:51:39.644Z,97020.13
2023-03-05T03:54:11.933Z,97021.48
2023-03-05T03:56:44.345Z,97017.41
2023-03-05T03:59:16.925Z,97011.63
2023-03-05T04:01:49.009Z,97007.56
2023-03-05T04:04:21.248Z,97007.55
2023-03-05T04:06:53.753Z,97012.64
2023-03-05T04:09:25.968Z,97010.95
2023-03-05T04:11:58.125Z,97009.59
2023-03-05T04:14:30.364Z,97010.27
2023-03-05T04:17:02.643Z,97007.38
2023-03-05T04:19:36.134Z,97004.15
2023-03-05T04:22:09.084Z,96997.85
2023-03-05T04:24:41.712Z,96992.92
2023-03-05T04:27:14.675Z,96987.32
2023-03-05T04:29:47.238Z,96985.75
2023-03-05T04:32:23.680Z,96978.63
2023-03-05T04:34:56.056Z,96974.89
2023-03-05T04:37:28.464Z,96974.70
2023-03-05T04:40:00.974Z,96971.13
2023-03-05T04:42:32.960Z,96968.58
2023-03-05T04:45:05.966Z,96968.41
2023-03-05T04:47:38.257Z,96969.42
2023-03-05T04:50:14.113Z,96967.55
2023-03-05T04:52:48.057Z,96968.73
2023-03-05T04:55:21.198Z,96961.09
2023-03-05T04:57:53.764Z,96956.83
2023-03-05T05:00:26.574Z,96957.98
2023-03-05T05:02:58.773Z,96955.44
2023-03-05T05:05:31.667Z,96952.73
2023-03-05T05:08:04.157Z,96949.52
2023-03-05T05:10:38.966Z,96945.94
2023-03-05T05:13:10.996Z,96944.77
2023-03-05T05:15:45.194Z,96951.05
2023-03-05T05:18:17.259Z,96951.55
2023-03-05T05:20:49.660Z,96951.02
2023-03-05T05:23:22.385Z,96951.54
2023-03-05T05:26:01.794Z,96958.66
2023-03-05T05:28:34.229Z,96958.15
2023-03-05T05:31:10.494Z,96956.29
2023-03-05T05:33:42.993Z,96954.92
2023-03-05T05:36:19.435Z,96957.33
2023-03-05T05:38:51.733Z,96960.23
2023-03-05T05:41:24.177Z,96965.30
2023-03-05T05:43:56.332Z,96963.30
2023-03-05T05:46:29.385Z,96963.64
2023-03-05T05:49:01.655Z,96961.10
2023-03-05T05:51:33.866Z,96956.34
2023-03-05T05:54:06.589Z,96956.83
2023-03-05T05:56:38.688Z,96956.50
2023-03-05T05:59:12.037Z,96955.46
2023-03-05T06:01:44.197Z,96956.13
2023-03-05T06:04:16.342Z,96958.54
2023-03-05T06:06:48.569Z,96962.98
2023-03-05T06:09:20.903Z,96962.29
2023-03-05T06:11:53.166Z,96965.18
2023-03-05T06:14:25.240Z,96964.84
2023-03-05T06:16:57.544Z,96963.14
2023-03-05T06:19:29.689Z,96961.11
2023-03-05T06:22:02.344Z,96956.69
2023-03-05T06:24:34.364Z,96956.70
2023-03-05T06:27:07.281Z,96957.05
2023-03-05T06:29:39.364Z,96957.89
2023-03-05T06:32:12.273Z,96958.70
2023-03-05T06:34:44.558Z,96954.14
2023-03-05T06:37:16.960Z,96954.34
2023-03-05T06:39:49.208Z,96953.83
2023-03-05T06:42:21.403Z,96949.23
2023-03-05T06:44:53.639Z,96951.79
2023-03-05T06:47:26.001Z,96949.42
2023-03-05T06:49:57.990Z,96947.73
2023-03-05T06:52:30.462Z,96946.35
2023-03-05T06:55:02.745Z,96944.17
2023-03-05T06:57:38.159Z,96945.23
2023-03-05T07:00:14.271Z,96942.86
2023-03-05T07:02:47.343Z,96938.80
2023-03-05T07:05:20.057Z,96933.52
2023-03-05T07:07:52.245Z,96932.15
2023-03-05T07:10:24.392Z,96927.42
2023-03-05T07:12:56.885Z,96927.60
2023-03-05T07:15:29.081Z,96921.83
2023-03-05T07:18:01.561Z,96925.91
2023-03-05T07:20:35.328Z,96926.25
2023-03-05T07:23:07.906Z,96926.75
2023-03-05T07:25:47.584Z,96914.03
2023-03-05T07:28:20.712Z,96904.70
2023-03-05T07:31:00.652Z,96899.80
2023-03-05T07:33:34.073Z,96907.79
2023-03-05T07:36:09.945Z,96910.00
2023-03-05T07:38:42.712Z,96906.27
2023-03-05T07:41:19.946Z,96903.39
2023-03-05T07:43:54.074Z,96908.48
2023-03-05T07:46:28.356Z,96898.84
2023-03-05T07:49:01.006Z,96908.86
2023-03-05T07:51:33.370Z,96910.22
2023-03-05T07:54:06.077Z,96911.23
2023-03-05T07:56:39.164Z,96911.58
2023-03-05T07:59:15.339Z,96910.89
2023-03-05T08:01:47.824Z,96911.57
2023-03-05T08:04:19.942Z,96912.41
2023-03-05T08:06:53.075Z,96914.28
2023-03-05T08:09:25.410Z,96912.07
2023-03-05T08:11:57.599Z,96905.98
2023-03-05T08:14:31.314Z,96905.13
2023-03-05T08:17:06.803Z,96906.98
2023-03-05T08:19:40.278Z,96903.23
2023-03-05T08:22:13.425Z,96899.52
2023-03-05T08:24:50.748Z,96899.85
2023-03-05T08:27:22.799Z,96896.62
2023-03-05T08:29:58.142Z,96898.30
2023-03-05T08:32:30.965Z,96893.36
2023-03-05T08:35:08.365Z,96893.20
2023-03-05T08:37:41.203Z,96891.66
2023-03-05T08:40:18.274Z,96888.27
2023-03-05T08:42:52.235Z,96883.51
2023-03-05T08:45:25.058Z,96886.39
2023-03-05T08:47:57.601Z,96888.26
2023-03-05T08:50:29.877Z,96884.67
2023-03-05T08:53:02.523Z,96875.99
2023-03-05T08:55:35.670Z,96877.70
2023-03-05T08:58:08.483Z,96874.77
2023-03-05T09:00:40.539Z,96872.21
2023-03-05T09:03:12.891Z,96871.70
2023-03-05T09:05:45.737Z,96868.66
2023-03-05T09:08:22.489Z,96866.92
2023-03-05T09:10:55.566Z,96870.98
2023-03-05T09:13:27.627Z,96870.65
2023-03-05T09:16:01.479Z,96868.93
2023-03-05T09:18:37.003Z,96867.20
2023-03-05T09:21:10.871Z,96859.89
2023-03-05T09:23:45.352Z,96860.05
2023-03-05T09:26:20.395Z,96860.23
2023-03-05T09:28:54.892Z,96855.13
2023-03-05T09:31:27.557Z,96858.36
2023-03-05T09:33:59.602Z,96849.84
2023-03-05T09:36:33.504Z,96848.95
2023-03-05T09:39:07.232Z,96843.63
2023-03-05T09:41:42.552Z,96844.33
2023-03-05T09:44:31.571Z,96834.98
2023-03-05T09:47:18.483Z,96833.58
2023-03-05T09:49:59.646Z,96827.94
2023-03-05T09:52:41.070Z,96828.46
2023-03-05T09:55:21.850Z,96831.17
2023-03-05T09:57:58.616Z,96825.71
2023-03-05T10:00:39.997Z,96821.75
2023-03-05T10:03:17.686Z,96818.95
2023-03-05T10:06:05.635Z,96816.20
2023-03-05T10:08:47.156Z,96814.94
2023-03-05T10:11:36.932Z,96811.88
2023-03-05T10:14:14.115Z,96806.39
2023-03-05T10:17:01.875Z,96806.42
2023-03-05T10:20:14.256Z,96803.59
2023-03-05T10:23:04.392Z,96800.24
2023-03-05T10:25:56.299Z,96793.98
2023-03-05T10:28:36.214Z,96787.52
2023-03-05T10:31:25.096Z,96788.52
2023-03-05T10:34:12.603Z,96777.45
2023-03-05T10:36:59.494Z,96768.57
2023-03-05T10:40:02.877Z,96770.06
2023-03-05T10:42:44.895Z,96769.83
2023-03-05T10:45:23.145Z,96770.69
2023-03-05T10:48:01.174Z,96764.84
2023-03-05T10:50:38.604Z,96767.89
2023-03-05T10:53:23.544Z,96767.73
2023-03-05T10:55:56.810Z,96766.92
2023-03-05T10:58:29.548Z,96763.31
2023-03-05T11:01:22.683Z,96762.02
2023-03-05T11:04:00.181Z,96756.09
2023-03-05T11:06:37.052Z,96754.02
2023-03-05T11:09:33.962Z,96749.36
2023-03-05T11:12:17.883Z,96748.98
2023-03-05T11:15:09.382Z,96744.67
2023-03-05T11:17:44.928Z,96745.49
2023-03-05T11:20:36.736Z,96738.86
2023-03-05T11:23:15.969Z,96736.48
2023-03-05T11:25:57.648Z,96734.30
2023-03-05T11:28:35.745Z,96732.70
2023-03-05T11:31:25.287Z,96738.04
2023-03-05T11:34:03.687Z,96736.31
2023-03-05T11:36:38.047Z,96737.89
2023-03-05T11:39:20.232Z,96735.77
2023-03-05T11:41:56.037Z,96738.09
2023-03-05T11:44:31.079Z,96735.20
2023-03-05T11:47:11.725Z,96728.98
2023-03-05T11:49:54.215Z,96727.15
2023-03-05T11:52:32.140Z,96721.86
2023-03-05T11:55:09.030Z,96721.02
2023-03-05T11:57:52.702Z,96716.04
2023-03-05T12:00:33.082Z,96712.79
2023-03-05T12:03:14.003Z,96703.74
2023-03-05T12:05:49.809Z,96701.49
2023-03-05T12:08:28.647Z,96699.79
2023-03-05T12:11:03.016Z,96696.52
2023-03-05T12:13:41.905Z,96693.90
2023-03-05T12:16:26.103Z,96693.38
2023-03-05T12:19:13.106Z,96691.50
2023-03-05T12:21:50.232Z,96690.88
2023-03-05T12:24:41.641Z,96692.25
2023-03-05T12:27:16.603Z,96694.52
2023-03-05T12:29:51.500Z,96695.90
2023-03-05T12:33:03.104Z,96696.61
2023-03-05T12:35:41.015Z,96694.52
2023-03-05T12:38:33.170Z,96696.02
2023-03-05T12:41:44.394Z,96691.55
2023-03-05T12:44:27.467Z,96693.89
2023-03-05T12:47:23.985Z,96691.85
2023-03-05T12:49:57.670Z,96688.98
2023-03-05T12:52:33.178Z,96682.80
2023-03-05T12:55:24.210Z,96681.92
2023-03-05T12:58:01.819Z,96677.39
2023-03-05T13:00:41.730Z,96675.30
2023-03-05T13:03:19.626Z,96674.74
2023-03-05T13:05:55.139Z,96668.59
2023-03-05T13:08:30.981Z,96666.50
2023-03-05T13:11:09.114Z,96664.77
2023-03-05T13:13:46.784Z,96664.52
2023-03-05T13:16:23.923Z,96658.88
2023-03-05T13:18:59.990Z,96660.68
2023-03-05T13:21:35.711Z,96660.44
2023-03-05T13:24:16.884Z,96655.70
2023-03-05T13:26:49.458Z,96653.47
2023-03-05T13:29:23.055Z,96650.71
2023-03-05T13:32:01.930Z,96647.10
2023-03-05T13:34:46.700Z,96650.59
2023-03-05T13:37:22.179Z,96646.34
2023-03-05T13:40:08.583Z,96651.61
2023-03-05T13:42:44.115Z,96651.75
2023-03-05T13:45:31.448Z,96651.36
2023-03-05T13:48:08.958Z,96644.88
2023-03-05T13:51:00.481Z,96638.85
2023-03-05T13:53:37.455Z,96633.83
2023-03-05T13:56:23.747Z,96628.70
2023-03-05T13:58:58.848Z,96624.43
2023-03-05T14:01:42.870Z,96624.84
2023-03-05T14:04:26.644Z,96614.54
2023-03-05T14:07:06.679Z,96621.48
2023-03-05T14:09:54.693Z,96620.83
2023-03-05T14:12:36.742Z,96621.95
2023-03-05T14:15:24.015Z,96627.24
2023-03-05T14:18:08.898Z,96634.02
2023-03-05T14:20:43.699Z,96630.49
2023-03-05T14:23:38.922Z,96632.78
2023-03-05T14:26:28.728Z,96632.35
2023-03-05T14:29:02.952Z,96635.92
2023-03-05T14:31:40.422Z,96632.50
2023-03-05T14:34:24.497Z,96636.93
2023-03-05T14:37:00.972Z,96637.23
2023-03-05T14:39:41.238Z,96634.58
2023-03-05T14:42:39.218Z,96633.91
2023-03-05T14:45:18.798Z,96639.02
2023-03-05T14:47:51.913Z,96639.54
2023-03-05T14:50:29.442Z,96641.41
2023-03-05T14:53:06.192Z,96643.36
2023-03-05T14:55:43.922Z,96638.27
2023-03-05T14:58:22.363Z,96634.36
2023-03-05T15:07:48.455Z,96631.15
2023-03-05T15:10:22.914Z,96636.98
2023-03-05T15:12:55.829Z,96637.01
2023-03-05T15:15:27.103Z,96639.77
2023-03-05T15:18:00.721Z,96641.39
2023-03-05T15:20:35.899Z,96640.02
2023-03-05T15:23:11.189Z,96640.36
2023-03-05T15:25:45.540Z,96645.15
2023-03-05T15:28:19.261Z,96644.84
2023-03-05T15:30:52.305Z,96643.69
2023-03-05T15:33:27.244Z,96646.83
2023-03-05T15:36:00.458Z,96646.20
2023-03-05T15:38:32.977Z,96646.89
2023-03-05T15:41:05.249Z,96644.06
2023-03-05T15:43:38.501Z,96644.08
2023-03-05T15:46:10.744Z,96641.00
2023-03-05T15:48:50.376Z,96648.77
2023-03-05T15:51:22.433Z,96645.73
2023-03-05T15:53:54.916Z,96646.59
2023-03-05T15:56:27.263Z,96648.32
2023-03-05T15:58:59.472Z,96646.48
2023-03-05T16:01:33.249Z,96645.45
2023-03-05T16:04:03.828Z,96645.10
2023-03-05T16:06:37.451Z,96647.52
2023-03-05T16:09:09.756Z,96647.66
2023-03-05T16:11:48.304Z,96648.20
2023-03-05T16:14:24.117Z,96645.66
2023-03-05T16:16:59.649Z,96648.71
2023-03-05T16:19:32.358Z,96648.08
2023-03-05T16:22:04.540Z,96647.78
2023-03-05T16:24:37.659Z,96645.09
2023-03-05T16:27:12.844Z,96641.54
2023-03-05T16:29:46.345Z,96642.56
2023-03-05T16:32:19.055Z,96643.62
2023-03-05T16:34:51.464Z,96647.66
2023-03-05T16:37:25.289Z,96649.55
2023-03-05T16:39:59.102Z,96645.66
2023-03-05T16:42:31.386Z,96645.85
2023-03-05T16:45:03.795Z,96645.34
2023-03-05T16:47:35.986Z,96651.27
2023-03-05T16:50:11.367Z,96647.55
2023-03-05T16:52:44.033Z,96645.16
2023-03-05T16:55:16.392Z,96651.12
2023-03-05T16:57:48.662Z,96647.54
2023-03-05T17:00:25.013Z,96652.48
2023-03-05T17:02:59.866Z,96649.91
2023-03-05T17:05:32.023Z,96653.13
2023-03-05T17:08:04.478Z,96657.52
2023-03-05T17:10:48.620Z,96657.36
2023-03-05T17:13:25.068Z,96664.36
2023-03-05T17:16:00.447Z,96672.88
2023-03-05T17:18:32.725Z,96670.52
2023-03-05T17:21:07.713Z,96667.29
2023-03-05T17:23:41.304Z,96668.31
2023-03-05T17:26:15.293Z,96667.98
2023-03-05T17:28:48.064Z,96676.14
2023-03-05T17:31:22.467Z,96676.83
2023-03-05T17:33:57.474Z,96676.17
2023-03-05T17:36:30.035Z,96675.67
2023-03-05T17:39:02.563Z,96677.90
2023-03-05T17:41:37.706Z,96677.38
2023-03-05T17:44:12.443Z,96677.58
2023-03-05T17:46:45.096Z,96676.73
2023-03-05T17:49:28.431Z,96675.90
2023-03-05T17:52:02.943Z,96676.25
2023-03-05T17:54:35.179Z,96670.99
2023-03-05T17:57:07.564Z,96667.94
2023-03-05T17:59:39.527Z,96661.83
2023-03-05T18:02:12.733Z,96655.03
2023-03-05T18:04:48.286Z,96645.36
2023-03-05T18:07:20.630Z,96639.42
2023-03-05T18:09:52.986Z,96639.59
2023-03-05T18:12:25.407Z,96637.56
2023-03-05T18:14:57.797Z,96634.17
2023-03-05T18:17:30.343Z,96637.41
2023-03-05T18:20:04.153Z,96638.27
2023-03-05T18:22:36.842Z,96635.39
2023-03-05T18:25:12.425Z,96631.32
2023-03-05T18:27:44.753Z,96630.30
2023-03-05T18:30:18.512Z,96633.17
2023-03-05T18:32:51.682Z,96635.72
2023-03-05T18:35:25.309Z,96632.83
2023-03-05T18:37:59.306Z,96637.25
2023-03-05T18:40:37.027Z,96641.48
2023-03-05T18:43:11.603Z,96640.14
2023-03-05T18:45:44.020Z,96639.29
2023-03-05T18:48:17.122Z,96640.99
2023-03-05T18:50:53.108Z,96641.84
2023-03-05T18:53:27.019Z,96648.46
2023-03-05T18:56:00.616Z,96650.17
2023-03-05T18:58:34.483Z,96653.56
2023-03-05T19:01:07.218Z,96653.05
2023-03-05T19:03:39.889Z,96654.73
2023-03-05T19:06:13.460Z,96651.85
2023-03-05T19:08:47.783Z,96650.49
2023-03-05T19:11:54.059Z,96646.77
2023-03-05T19:14:26.593Z,96647.61
2023-03-05T19:16:59.183Z,96644.23
2023-03-05T19:19:32.354Z,96646.77
2023-03-05T19:22:03.915Z,96649.50
2023-03-05T19:24:38.704Z,96651.17
2023-03-05T19:27:13.928Z,96653.22
2023-03-05T19:29:47.020Z,96651.87
2023-03-05T19:32:22.180Z,96652.88
2023-03-05T19:34:58.933Z,96652.71
2023-03-05T19:37:33.380Z,96650.67
2023-03-05T19:40:06.284Z,96653.39
2023-03-05T19:43:17.530Z,96651.19
2023-03-05T19:46:14.397Z,96649.83
2023-03-05T19:48:47.169Z,96648.81
2023-03-05T19:51:21.519Z,96651.85
2023-03-05T19:53:53.917Z,96648.80
2023-03-05T19:56:26.257Z,96642.52
2023-03-05T19:58:58.457Z,96640.16
2023-03-05T20:01:31.071Z,96648.98
2023-03-05T20:04:06.455Z,96650.48
2023-03-05T20:06:41.737Z,96648.80
2023-03-05T20:09:15.189Z,96647.27
2023-03-05T20:11:48.584Z,96653.20
2023-03-05T20:14:21.390Z,96651.17
2023-03-05T20:16:53.700Z,96647.77
2023-03-05T20:19:25.931Z,96644.89
2023-03-05T20:21:58.448Z,96641.67
2023-03-05T20:24:31.961Z,96640.15
2023-03-05T20:27:04.495Z,96642.02
2023-03-05T20:29:37.600Z,96649.81
2023-03-05T20:32:09.929Z,96651.02
2023-03-05T20:34:42.588Z,96643.90
2023-03-05T20:37:16.877Z,96644.73
2023-03-05T20:39:53.277Z,96646.94
2023-03-05T20:42:25.422Z,96639.13
2023-03-05T20:44:57.721Z,96639.81
2023-03-05T20:47:46.863Z,96642.55
2023-03-05T20:50:20.093Z,96638.14
2023-03-05T20:52:52.304Z,96635.25
2023-03-05T20:55:27.953Z,96635.40
2023-03-05T20:58:00.695Z,96631.17
2023-03-05T21:00:34.812Z,96628.13
2023-03-05T21:03:07.650Z,96631.67
2023-03-05T21:05:43.181Z,96623.70
2023-03-05T21:08:16.026Z,96626.76
2023-03-05T21:10:48.404Z,96623.20
2023-03-05T21:13:20.808Z,96621.84
2023-03-05T21:15:53.175Z,96620.83
2023-03-05T21:18:25.256Z,96624.73
2023-03-05T21:20:57.442Z,96626.94
2023-03-05T21:23:31.743Z,96625.08
2023-03-05T21:26:05.082Z,96618.79
2023-03-05T21:28:37.594Z,96620.14
2023-03-05T21:31:14.634Z,96615.56
2023-03-05T21:33:46.890Z,96605.90
2023-03-05T21:36:20.976Z,96606.05
2023-03-05T21:38:53.232Z,96608.27
2023-03-05T21:41:26.643Z,96606.07
2023-03-05T21:44:04.175Z,96598.25
2023-03-05T21:46:37.835Z,96598.42
2023-03-05T21:49:10.165Z,96592.48
2023-03-05T21:52:11.918Z,96589.95
2023-03-05T21:54:45.106Z,96585.54
2023-03-05T21:57:17.364Z,96581.98
2023-03-05T21:59:50.137Z,96579.95
2023-03-05T22:02:26.188Z,96578.75
2023-03-05T22:04:58.359Z,96580.61
2023-03-05T22:07:30.541Z,96576.72
2023-03-05T22:10:03.084Z,96577.57
2023-03-05T22:13:12.565Z,96574.70
2023-03-05T22:15:50.825Z,96571.13
2023-03-05T22:18:25.018Z,96566.90
2023-03-05T22:20:58.448Z,96570.96
2023-03-05T22:23:34.364Z,96569.10
2023-03-05T22:26:09.344Z,96566.73
2023-03-05T22:28:42.898Z,96563.67
2023-03-05T22:31:20.473Z,96567.41
2023-03-05T22:33:52.693Z,96569.10
2023-03-05T22:36:24.794Z,96565.04
2023-03-05T22:38:57.115Z,96570.63
2023-03-05T22:41:29.248Z,96570.45
2023-03-05T22:44:01.376Z,96573.34
2023-03-05T22:46:33.871Z,96574.68
2023-03-05T22:49:06.074Z,96572.14
2023-03-05T22:51:39.543Z,96573.66
2023-03-05T22:54:11.662Z,96575.52
2023-03-05T22:56:43.984Z,96570.95
2023-03-05T22:59:16.119Z,96576.56
2023-03-05T23:02:09.522Z,96574.53
2023-03-05T23:04:53.587Z,96571.46
2023-03-05T23:07:27.532Z,96574.02
2023-03-05T23:10:02.013Z,96573.51
2023-03-05T23:12:35.649Z,96565.36
2023-03-05T23:15:12.341Z,96561.12
2023-03-05T23:17:44.544Z,96557.89
2023-03-05T23:20:18.187Z,96556.87
2023-03-05T23:22:53.045Z,96557.39
2023-03-05T23:25:27.012Z,96554.52
2023-03-05T23:28:00.121Z,96560.10
2023-03-05T23:30:34.033Z,96565.35
2023-03-05T23:33:09.197Z,96557.72
2023-03-05T23:35:42.919Z,96552.98
2023-03-05T23:38:16.253Z,96556.02
2023-03-05T23:40:49.915Z,96560.44
2023-03-05T23:43:20.549Z,96553.16
2023-03-05T23:45:55.223Z,96550.09
2023-03-05T23:48:28.539Z,96557.56
2023-03-05T23:51:00.548Z,96557.21
2023-03-05T23:53:33.159Z,96564.86
2023-03-05T23:56:10.225Z,96563.84
2023-03-05T23:58:42.942Z,96569.09
